Time;durP1;ratioP1;P1;durP2;ratioP2;P2;SDS_P1;SDS_P2;PMS_P1;PMS_P2;Temp;Humidity;BMP_temperature;BMP_pressure;BME280_temperature;BME280_humidity;BME280_pressure;Samples;Min_cycle;Max_cycle;Signal;HPM_P1;HPM_P2
2022/02/22 00:00:15;;;;;;;8.35;2.35;;;16.40;71.80;;;;;;5072209;28;20024;-50
2022/02/22 00:02:42;;;;;;;8.00;2.33;;;16.70;74.70;;;;;;5072111;28;20055;-71
2022/02/22 00:05:10;;;;;;;10.65;2.75;;;16.30;77.90;;;;;;5072111;28;20040;-71
2022/02/22 00:07:36;;;;;;;7.95;2.42;;;;;;;;;;5072321;28;20081;-71
2022/02/22 00:10:02;;;;;;;11.77;3.22;;;;;;;;;;5072012;28;20033;-71
2022/02/22 00:12:28;;;;;;;10.25;2.33;;;;;;;;;;5072126;28;20107;-71
2022/02/22 00:14:54;;;;;;;9.10;2.03;;;;;;;;;;5072064;28;20554;-72
2022/02/22 00:17:20;;;;;;;11.30;2.30;;;;;;;;;;5072048;28;20189;-72
2022/02/22 00:19:48;;;;;;;6.60;2.10;;;16.30;72.30;;;;;;5072107;28;20033;-72
2022/02/22 00:22:14;;;;;;;9.32;2.53;;;;;;;;;;5072000;28;20052;-72
2022/02/22 00:24:40;;;;;;;6.55;1.95;;;;;;;;;;5071975;28;20060;-72
2022/02/22 00:27:06;;;;;;;8.43;2.00;;;;;;;;;;5071855;28;20037;-73
2022/02/22 00:29:32;;;;;;;7.78;2.50;;;;;;;;;;5071922;28;20107;-72
2022/02/22 00:31:58;;;;;;;9.20;2.10;;;;;;;;;;5071864;28;20064;-72
2022/02/22 00:34:24;;;;;;;8.82;2.15;;;;;;;;;;5071892;28;20398;-72
2022/02/22 00:36:50;;;;;;;7.63;1.80;;;;;;;;;;5071917;28;20028;-72
2022/02/22 00:39:16;;;;;;;13.38;2.28;;;;;;;;;;5071869;28;20035;-72
2022/02/22 00:41:42;;;;;;;10.85;3.08;;;;;;;;;;5071792;28;20101;-72
2022/02/22 00:44:08;;;;;;;8.40;2.50;;;;;;;;;;5071753;28;20077;-72
2022/02/22 00:46:34;;;;;;;7.95;2.13;;;;;;;;;;5071732;28;20363;-72
2022/02/22 00:49:00;;;;;;;6.80;1.77;;;;;;;;;;5071659;28;20039;-71
2022/02/22 00:51:26;;;;;;;8.85;2.33;;;;;;;;;;5071704;28;20483;-72
2022/02/22 00:53:52;;;;;;;8.25;2.05;;;;;;;;;;5073254;28;20025;-72
2022/02/22 00:56:18;;;;;;;8.65;1.92;;;;;;;;;;5075421;28;20463;-72
2022/02/22 00:58:44;;;;;;;10.80;1.90;;;;;;;;;;5075349;28;20381;-72
2022/02/22 01:01:15;;;;;;;8.15;1.80;;;;;;;;;;5075160;28;20074;-72
2022/02/22 01:03:41;;;;;;;7.18;2.47;;;;;;;;;;5075116;28;20052;-72
2022/02/22 01:06:07;;;;;;;8.68;2.13;;;;;;;;;;5075175;28;20070;-72
2022/02/22 01:08:33;;;;;;;12.05;3.28;;;;;;;;;;5075296;28;20037;-72
2022/02/22 01:10:59;;;;;;;8.27;2.30;;;;;;;;;;5075132;28;20025;-72
2022/02/22 01:13:25;;;;;;;8.93;2.38;;;;;;;;;;5075083;28;20510;-72
2022/02/22 01:15:51;;;;;;;8.63;2.35;;;;;;;;;;5075110;28;20056;-72
2022/02/22 01:18:17;;;;;;;6.32;1.75;;;;;;;;;;5074978;28;20056;-72
2022/02/22 01:20:43;;;;;;;7.78;2.47;;;;;;;;;;5074971;28;20039;-72
2022/02/22 01:23:09;;;;;;;8.55;2.72;;;;;;;;;;5074903;28;20029;-71
2022/02/22 01:25:35;;;;;;;8.98;1.83;;;;;;;;;;5074946;28;20029;-71
2022/02/22 01:28:01;;;;;;;5.95;2.17;;;;;;;;;;5074732;28;20419;-71
2022/02/22 01:30:27;;;;;;;9.07;2.70;;;;;;;;;;5074746;28;20020;-72
2022/02/22 01:32:53;;;;;;;8.38;1.60;;;;;;;;;;5074836;28;20410;-72
2022/02/22 01:35:19;;;;;;;6.47;1.83;;;;;;;;;;5074829;28;20325;-72
2022/02/22 01:37:45;;;;;;;7.18;1.80;;;;;;;;;;5074637;28;20036;-72
2022/02/22 01:40:12;;;;;;;6.95;1.90;;;;;;;;;;5074631;28;20032;-72
2022/02/22 01:42:38;;;;;;;11.23;2.17;;;;;;;;;;5074482;28;20071;-72
2022/02/22 01:45:04;;;;;;;7.00;2.03;;;;;;;;;;5074509;28;20032;-72
2022/02/22 01:47:30;;;;;;;8.52;1.90;;;;;;;;;;5074342;28;20039;-70
2022/02/22 01:49:56;;;;;;;6.75;1.75;;;;;;;;;;5074385;28;20028;-72
2022/02/22 01:52:22;;;;;;;6.18;1.85;;;;;;;;;;5074388;28;20074;-72
2022/02/22 01:54:48;;;;;;;6.95;2.55;;;;;;;;;;5074627;28;20082;-72
2022/02/22 01:57:18;;;;;;;6.18;1.80;;;15.80;79.50;;;;;;5074267;28;20441;-72
2022/02/22 01:59:44;;;;;;;6.28;1.70;;;15.80;79.60;;;;;;5074278;28;20016;-72
2022/02/22 02:02:10;;;;;;;10.25;2.33;;;;;;;;;;5074351;28;20447;-72
2022/02/22 02:04:36;;;;;;;8.75;1.85;;;;;;;;;;5073976;28;20067;-72
2022/02/22 02:07:02;;;;;;;6.22;2.08;;;;;;;;;;5073646;28;20051;-72
2022/02/22 02:09:28;;;;;;;9.45;1.73;;;;;;;;;;5074054;28;20032;-72
2022/02/22 02:11:56;;;;;;;7.90;2.00;;;15.80;79.80;;;;;;5074048;28;20033;-73
2022/02/22 02:14:24;;;;;;;8.98;1.90;;;;;;;;;;5073932;28;20474;-73
2022/02/22 02:16:50;;;;;;;8.88;2.10;;;;;;;;;;5074156;28;20024;-73
2022/02/22 02:19:17;;;;;;;8.77;1.90;;;15.70;79.80;;;;;;5073836;28;20070;-73
2022/02/22 02:21:43;;;;;;;6.30;2.00;;;15.70;79.10;;;;;;5074021;28;20375;-73
2022/02/22 02:24:09;;;;;;;6.35;1.70;;;;;;;;;;5073789;28;20024;-73
2022/02/22 02:26:36;;;;;;;6.70;1.98;;;15.70;79.90;;;;;;5073645;28;20526;-73
2022/02/22 02:29:02;;;;;;;8.23;1.70;;;;;;;;;;5073657;28;20039;-50
2022/02/22 02:31:28;;;;;;;8.57;2.00;;;;;;;;;;5073627;28;20032;-51
2022/02/22 02:33:55;;;;;;;6.13;1.70;;;;;;;;;;5073519;28;20526;-52
2022/02/22 02:36:21;;;;;;;6.85;1.75;;;;;;;;;;5073513;28;20028;-53
2022/02/22 02:38:47;;;;;;;7.22;2.10;;;;;;;;;;5073431;28;20031;-52
2022/02/22 02:41:13;;;;;;;7.68;1.92;;;;;;;;;;5073399;28;20479;-51
2022/02/22 02:43:39;;;;;;;7.25;2.25;;;;;;;;;;5073344;28;20544;-52
2022/02/22 02:46:05;;;;;;;6.00;1.63;;;;;;;;;;5073386;28;20445;-51
2022/02/22 02:48:31;;;;;;;8.98;1.95;;;;;;;;;;5073242;28;20487;-52
2022/02/22 02:50:57;;;;;;;9.93;1.83;;;;;;;;;;5073227;28;20415;-51
2022/02/22 02:53:23;;;;;;;10.15;2.22;;;;;;;;;;5073188;28;20149;-51
2022/02/22 02:55:49;;;;;;;6.50;1.95;;;;;;;;;;5073104;28;20496;-53
2022/02/22 02:58:14;;;;;;;6.72;1.60;;;;;;;;;;5073384;28;20059;-51
2022/02/22 03:00:40;;;;;;;5.10;1.90;;;;;;;;;;5072993;28;20052;-53
2022/02/22 03:03:06;;;;;;;5.63;1.48;;;;;;;;;;5072779;28;20048;-51
2022/02/22 03:05:32;;;;;;;7.55;2.17;;;;;;;;;;5073031;28;20035;-50
2022/02/22 03:07:59;;;;;;;5.57;1.50;;;;;;;;;;5073377;28;20115;-51
2022/02/22 03:10:26;;;;;;;7.63;1.70;;;15.60;79.50;;;;;;5072857;28;20043;-52
2022/02/22 03:12:52;;;;;;;4.57;1.20;;;;;;;;;;5072694;28;20039;-50
2022/02/22 03:15:18;;;;;;;5.47;1.58;;;;;;;;;;5072831;28;20021;-51
2022/02/22 03:17:44;;;;;;;6.43;2.40;;;;;;;;;;5071847;28;20024;-54
2022/02/22 03:20:10;;;;;;;9.00;2.13;;;;;;;;;;5072784;28;20017;-51
2022/02/22 03:22:43;;;;;;;5.68;1.33;;;;;;;;;;5072695;28;20055;-52
2022/02/22 03:25:09;;;;;;;5.50;1.98;;;;;;;;;;5073156;28;20028;-53
2022/02/22 03:27:35;;;;;;;5.15;1.75;;;;;;;;;;5072573;28;20029;-52
2022/02/22 03:30:01;;;;;;;7.13;2.15;;;;;;;;;;5072584;28;20039;-53
2022/02/22 03:32:27;;;;;;;5.50;1.17;;;;;;;;;;5072604;28;20092;-50
2022/02/22 03:34:53;;;;;;;6.40;2.00;;;;;;;;;;5072462;28;20052;-51
2022/02/22 03:37:19;;;;;;;6.50;1.75;;;;;;;;;;5072515;28;20039;-52
2022/02/22 03:39:45;;;;;;;4.55;1.42;;;;;;;;;;5072484;28;20534;-54
2022/02/22 03:42:11;;;;;;;4.22;1.35;;;;;;;;;;5072557;28;20033;-51
2022/02/22 03:44:37;;;;;;;5.60;1.50;;;;;;;;;;5072508;28;20027;-50
2022/02/22 03:47:03;;;;;;;4.03;1.40;;;;;;;;;;5072285;28;20035;-53
2022/02/22 03:49:29;;;;;;;4.97;1.58;;;;;;;;;;5072425;28;20036;-52
2022/02/22 03:51:55;;;;;;;7.40;1.98;;;;;;;;;;5072247;28;20021;-50
2022/02/22 03:54:21;;;;;;;4.93;1.80;;;;;;;;;;5072333;28;20020;-52
2022/02/22 03:56:47;;;;;;;6.90;2.15;;;;;;;;;;5072303;28;20023;-54
2022/02/22 03:59:13;;;;;;;6.07;1.67;;;;;;;;;;5072601;28;20104;-51
2022/02/22 04:01:39;;;;;;;5.85;1.30;;;;;;;;;;5072154;28;20024;-52
2022/02/22 04:04:05;;;;;;;3.67;1.88;;;;;;;;;;5072150;28;20397;-53
2022/02/22 04:06:31;;;;;;;4.18;1.38;;;;;;;;;;5072235;28;20033;-50
2022/02/22 04:08:57;;;;;;;5.07;1.83;;;;;;;;;;5072389;28;20111;-54
2022/02/22 04:11:23;;;;;;;7.05;1.15;;;;;;;;;;5072141;28;20500;-51
2022/02/22 04:13:49;;;;;;;4.15;1.33;;;;;;;;;;5072164;28;20103;-53
2022/02/22 04:16:15;;;;;;;4.68;1.67;;;;;;;;;;5072124;28;20146;-54
2022/02/22 04:18:41;;;;;;;5.50;1.90;;;;;;;;;;5072156;28;20048;-53
2022/02/22 04:21:07;;;;;;;5.43;1.48;;;;;;;;;;5072090;28;20036;-53
2022/02/22 04:23:33;;;;;;;3.72;1.42;;;;;;;;;;5072075;28;20071;-50
2022/02/22 04:25:59;;;;;;;5.72;2.10;;;;;;;;;;5072026;28;20028;-52
2022/02/22 04:28:25;;;;;;;5.40;1.30;;;;;;;;;;5072681;28;20174;-51
2022/02/22 04:30:51;;;;;;;5.40;1.38;;;;;;;;;;5075980;28;20178;-50
2022/02/22 04:33:17;;;;;;;6.07;1.15;;;;;;;;;;5075895;28;20040;-54
2022/02/22 04:35:43;;;;;;;7.38;1.42;;;;;;;;;;5075853;28;20017;-52
2022/02/22 04:38:08;;;;;;;4.22;1.30;;;;;;;;;;5075783;28;20029;-52
2022/02/22 04:40:34;;;;;;;4.97;1.48;;;;;;;;;;5075781;28;20028;-50
2022/02/22 04:43:00;;;;;;;4.97;1.60;;;;;;;;;;5075737;28;20067;-51
2022/02/22 04:45:26;;;;;;;3.60;1.52;;;;;;;;;;5075644;28;20029;-50
2022/02/22 04:47:55;;;;;;;5.07;1.70;;;;;;;;;;5075538;28;20562;-51
2022/02/22 04:50:22;;;;;;;4.30;1.38;;;;;;;;;;5075552;28;20036;-52
2022/02/22 04:52:48;;;;;;;6.00;1.58;;;;;;;;;;5075538;28;20052;-53
2022/02/22 04:55:14;;;;;;;5.60;1.17;;;;;;;;;;5075570;28;20471;-50
2022/02/22 04:57:40;;;;;;;7.10;2.40;;;;;;;;;;5075450;28;20438;-51
2022/02/22 05:00:09;;;;;;;5.95;1.20;;;15.20;80.20;;;;;;5075315;28;20024;-52
2022/02/22 05:02:35;;;;;;;4.38;1.90;;;;;;;;;;5075093;28;20415;-53
2022/02/22 05:05:01;;;;;;;5.47;1.48;;;;;;;;;;5075235;28;20037;-54
2022/02/22 05:07:27;;;;;;;5.82;1.80;;;;;;;;;;5075173;28;20040;-53
2022/02/22 05:09:54;;;;;;;8.13;1.83;;;;;;;;;;5075415;28;20128;-52
2022/02/22 05:12:20;;;;;;;6.30;1.25;;;;;;;;;;5075106;28;20028;-54
2022/02/22 05:14:46;;;;;;;5.63;0.82;;;;;;;;;;5075127;28;20106;-53
2022/02/22 05:17:12;;;;;;;5.10;1.13;;;;;;;;;;5075134;28;20039;-73
2022/02/22 05:19:38;;;;;;;5.82;1.20;;;;;;;;;;5074965;28;20104;-73
2022/02/22 05:22:04;;;;;;;6.97;1.67;;;;;;;;;;5075023;28;20033;-73
2022/02/22 05:24:30;;;;;;;5.32;1.95;;;;;;;;;;5075026;28;20035;-73
2022/02/22 05:26:56;;;;;;;3.88;1.25;;;;;;;;;;5075179;28;20025;-73
2022/02/22 05:29:22;;;;;;;4.30;1.15;;;;;;;;;;5075139;28;20077;-73
2022/02/22 05:31:48;;;;;;;4.22;1.00;;;;;;;;;;5074832;28;20478;-73
2022/02/22 05:34:14;;;;;;;10.82;1.50;;;;;;;;;;5074835;28;20028;-73
2022/02/22 05:36:40;;;;;;;3.95;1.20;;;;;;;;;;5074790;28;20490;-73
2022/02/22 05:39:06;;;;;;;6.30;1.42;;;;;;;;;;5074694;28;20142;-74
2022/02/22 05:41:32;;;;;;;7.22;1.33;;;;;;;;;;5073589;28;20025;-73
2022/02/22 05:43:58;;;;;;;4.20;1.10;;;;;;;;;;5074619;28;20056;-73
2022/02/22 05:46:24;;;;;;;6.55;2.10;;;;;;;;;;5074561;28;20028;-74
2022/02/22 05:48:50;;;;;;;5.78;1.40;;;;;;;;;;5074437;28;20040;-74
2022/02/22 05:51:17;;;;;;;3.50;1.00;;;;;;;;;;5074469;28;20028;-74
2022/02/22 05:53:43;;;;;;;7.47;1.38;;;;;;;;;;5074460;28;20491;-74
2022/02/22 05:56:09;;;;;;;4.43;1.10;;;;;;;;;;5074658;28;20116;-74
2022/02/22 05:58:35;;;;;;;3.35;0.90;;;;;;;;;;5074295;28;20086;-74
2022/02/22 06:01:01;;;;;;;4.88;1.30;;;;;;;;;;5074294;28;20457;-74
2022/02/22 06:03:27;;;;;;;4.88;1.10;;;;;;;;;;5074019;28;20067;-73
2022/02/22 06:05:53;;;;;;;2.72;1.10;;;;;;;;;;5074458;28;20027;-73
2022/02/22 06:08:19;;;;;;;4.32;1.27;;;;;;;;;;5074116;28;20423;-74
2022/02/22 06:10:47;;;;;;;9.02;1.40;;;15.00;80.30;;;;;;5074211;28;20048;-74
2022/02/22 06:13:13;;;;;;;4.03;1.02;;;;;;;;;;5074048;28;20099;-74
2022/02/22 06:15:39;;;;;;;7.05;1.38;;;;;;;;;;5073950;28;20082;-74
2022/02/22 06:18:05;;;;;;;6.47;1.42;;;;;;;;;;5073976;28;20028;-74
2022/02/22 06:20:32;;;;;;;5.22;1.00;;;;;;;;;;5073897;28;20032;-74
2022/02/22 06:22:58;;;;;;;5.28;1.23;;;;;;;;;;5074012;28;20037;-74
2022/02/22 06:25:26;;;;;;;6.93;1.48;;;;;;;;;;5073990;28;20364;-74
2022/02/22 06:27:53;;;;;;;3.55;1.42;;;15.00;77.10;;;;;;5073691;28;20483;-74
2022/02/22 06:30:21;;;;;;;5.07;1.65;;;15.00;80.20;;;;;;5073676;28;20035;-74
2022/02/22 06:32:47;;;;;;;5.95;1.67;;;;;;;;;;5073585;28;20028;-74
2022/02/22 06:35:13;;;;;;;4.10;0.98;;;;;;;;;;5073833;28;20063;-74
2022/02/22 06:37:39;;;;;;;3.22;0.80;;;;;;;;;;5073515;28;20032;-74
2022/02/22 06:40:06;;;;;;;4.43;1.30;;;14.80;79.90;;;;;;5073380;28;20039;-74
2022/02/22 06:42:33;;;;;;;4.45;1.33;;;15.10;80.10;;;;;;5073568;28;20023;-74
2022/02/22 06:45:00;;;;;;;3.50;1.27;;;;;;;;;;5073385;28;20021;-74
2022/02/22 06:47:26;;;;;;;2.45;1.25;;;;;;;;;;5073406;28;20475;-73
2022/02/22 06:49:51;;;;;;;7.68;1.77;;;;;;;;;;5073303;28;20067;-76
2022/02/22 06:52:18;;;;;;;5.10;1.20;;;;;;;;;;5073114;28;20237;-76
2022/02/22 06:54:45;;;;;;;5.82;1.92;;;15.30;78.50;;;;;;5073196;28;20089;-73
2022/02/22 06:57:11;;;;;;;3.20;1.25;;;;;;;;;;5073082;28;20042;-73
2022/02/22 06:59:37;;;;;;;4.03;1.35;;;;;;;;;;5073060;28;20434;-72
2022/02/22 07:02:03;;;;;;;4.18;0.90;;;;;;;;;;5072798;28;20040;-73
2022/02/22 07:04:29;;;;;;;4.45;1.00;;;;;;;;;;5073137;28;20119;-72
2022/02/22 07:06:55;;;;;;;6.13;1.35;;;;;;;;;;5072946;28;20068;-72
2022/02/22 07:09:21;;;;;;;2.90;0.95;;;;;;;;;;5072815;28;20052;-72
2022/02/22 07:11:47;;;;;;;4.22;1.23;;;;;;;;;;5073056;28;20017;-74
2022/02/22 07:14:13;;;;;;;4.72;1.45;;;;;;;;;;5072891;28;20051;-76
2022/02/22 07:16:39;;;;;;;3.55;1.35;;;;;;;;;;5072784;28;20032;-79
2022/02/22 07:19:05;;;;;;;3.30;1.13;;;;;;;;;;5072769;28;20028;-79
2022/02/22 07:21:31;;;;;;;3.83;1.15;;;;;;;;;;5073010;28;20429;-76
2022/02/22 07:23:57;;;;;;;6.68;1.77;;;;;;;;;;5072731;28;20032;-79
2022/02/22 07:26:23;;;;;;;5.72;1.15;;;;;;;;;;5072740;28;20055;-77
2022/02/22 07:28:49;;;;;;;6.88;1.65;;;;;;;;;;5072542;28;20043;-77
2022/02/22 07:31:15;;;;;;;5.05;1.15;;;;;;;;;;5072674;28;20032;-77
2022/02/22 07:33:41;;;;;;;3.65;1.00;;;16.00;76.00;;;;;;5072563;28;20048;-77
2022/02/22 07:36:07;;;;;;;5.07;1.65;;;16.10;76.80;;;;;;5072522;28;20013;-77
2022/02/22 07:38:33;;;;;;;5.88;1.20;;;;;;;;;;5072481;28;20475;-77
2022/02/22 07:41:00;;;;;;;7.57;1.95;;;;;;;;;;5072683;28;20025;-76
2022/02/22 07:43:26;;;;;;;6.30;1.40;;;;;;;;;;5072402;28;20036;-77
2022/02/22 07:45:52;;;;;;;5.18;1.13;;;;;;;;;;5072372;28;20060;-74
2022/02/22 07:48:18;;;;;;;3.83;1.23;;;;;;;;;;5072302;28;20494;-74
2022/02/22 07:50:44;;;;;;;7.10;1.40;;;;;;;;;;5072319;28;20028;-72
2022/02/22 07:53:10;;;;;;;5.00;1.30;;;;;;;;;;5072325;28;20035;-73
2022/02/22 07:55:36;;;;;;;4.97;1.42;;;;;;;;;;5072274;28;20070;-75
2022/02/22 07:58:01;;;;;;;7.07;1.50;;;;;;;;;;5072317;28;20025;-72
2022/02/22 08:00:27;;;;;;;4.28;1.17;;;;;;;;;;5072337;28;20033;-50
2022/02/22 08:02:54;;;;;;;4.57;1.38;;;;;;;;;;5071399;28;20506;-51
2022/02/22 08:05:20;;;;;;;8.07;1.88;;;;;;;;;;5072473;28;20032;-50
2022/02/22 08:07:46;;;;;;;7.80;2.13;;;;;;;;;;5071878;28;20039;-49
2022/02/22 08:10:13;;;;;;;9.32;1.92;;;;;;;;;;5072355;28;20021;-50
2022/02/22 08:12:38;;;;;;;6.68;1.98;;;;;;;;;;5072187;28;20031;-53
2022/02/22 08:15:05;;;;;;;9.38;1.83;;;17.20;76.60;;;;;;5072162;28;20486;-49
2022/02/22 08:17:31;;;;;;;4.90;1.15;;;;;;;;;;5072126;28;20624;-48
2022/02/22 08:19:57;;;;;;;6.35;1.40;;;;;;;;;;5072164;28;20059;-49
2022/02/22 08:22:23;;;;;;;6.82;2.47;;;;;;;;;;5070783;28;20123;-47
2022/02/22 08:24:49;;;;;;;6.40;1.83;;;;;;;;;;5072122;28;20449;-49
2022/02/22 08:27:15;;;;;;;6.40;1.88;;;17.80;76.80;;;;;;5071983;28;20036;-50
2022/02/22 08:29:41;;;;;;;3.83;1.27;;;;;;;;;;5071890;28;20490;-50
2022/02/22 08:32:07;;;;;;;5.75;1.60;;;;;;;;;;5072239;28;20432;-51
2022/02/22 08:34:33;;;;;;;6.82;1.52;;;;;;;;;;5071919;28;20032;-49
2022/02/22 08:36:59;;;;;;;5.57;1.60;;;;;;;;;;5071999;28;20548;-51
2022/02/22 08:39:25;;;;;;;8.07;2.00;;;;;;;;;;5071917;28;20029;-50
2022/02/22 08:41:52;;;;;;;2.72;1.23;;;;;;;;;;5071809;28;20058;-51
2022/02/22 08:44:18;;;;;;;8.05;1.73;;;;;;;;;;5071854;28;20115;-50
2022/02/22 08:46:44;;;;;;;5.68;1.63;;;;;;;;;;5071761;28;20025;-50
2022/02/22 08:49:10;;;;;;;4.55;1.25;;;;;;;;;;5071700;28;20052;-49
2022/02/22 08:51:36;;;;;;;3.72;1.15;;;;;;;;;;5072084;28;20383;-50
2022/02/22 08:54:04;;;;;;;5.65;1.35;;;;;;;;;;5071809;28;20036;-51
2022/02/22 08:56:30;;;;;;;5.20;1.50;;;;;;;;;;5071775;28;20522;-68
2022/02/22 08:58:56;;;;;;;4.75;1.58;;;;;;;;;;5071709;28;20032;-69
2022/02/22 09:01:23;;;;;;;5.05;1.38;;;;;;;;;;5071639;28;20024;-69
2022/02/22 09:03:49;;;;;;;7.45;1.30;;;;;;;;;;5071472;28;20049;-68
2022/02/22 09:06:15;;;;;;;5.03;1.63;;;;;;;;;;5071863;28;20028;-69
2022/02/22 09:08:41;;;;;;;4.43;1.33;;;;;;;;;;5071601;28;20040;-69
2022/02/22 09:11:07;;;;;;;3.80;1.48;;;;;;;;;;5071633;28;20075;-71
2022/02/22 09:13:33;;;;;;;6.45;1.38;;;;;;;;;;5071632;28;20024;-72
2022/02/22 09:15:59;;;;;;;8.85;1.38;;;;;;;;;;5073170;28;20028;-70
2022/02/22 09:18:25;;;;;;;7.20;1.70;;;;;;;;;;5074985;28;20025;-70
2022/02/22 09:20:51;;;;;;;5.45;1.40;;;;;;;;;;5075097;28;20039;-69
2022/02/22 09:23:17;;;;;;;4.47;1.50;;;;;;;;;;5074935;28;20028;-72
2022/02/22 09:25:43;;;;;;;7.57;1.45;;;;;;;;;;5074902;28;20036;-69
2022/02/22 09:28:10;;;;;;;5.22;1.45;;;19.40;77.70;;;;;;5074821;28;20032;-69
2022/02/22 09:30:36;;;;;;;6.78;1.92;;;;;;;;;;5074802;28;20021;-70
2022/02/22 09:33:04;;;;;;;5.53;1.65;;;19.60;77.60;;;;;;5075145;28;20081;-70
2022/02/22 09:35:30;;;;;;;3.80;1.40;;;;;;;;;;5074793;28;20029;-71
2022/02/22 09:37:56;;;;;;;3.20;1.30;;;;;;;;;;5074774;28;20121;-71
2022/02/22 09:40:24;;;;;;;3.92;1.83;;;19.70;77.50;;;;;;5074681;28;20029;-70
2022/02/22 09:42:50;;;;;;;5.03;1.48;;;;;;;;;;5074956;28;20081;-70
2022/02/22 09:45:16;;;;;;;4.63;1.17;;;;;;;;;;5074588;28;20112;-69
2022/02/22 09:47:44;;;;;;;8.00;2.15;;;19.70;77.40;;;;;;5074495;28;20040;-69
2022/02/22 09:50:10;;;;;;;3.55;1.23;;;;;;;;;;5074532;28;20386;-69
2022/02/22 09:52:36;;;;;;;4.13;2.00;;;;;;;;;;5074527;28;20031;-70
2022/02/22 09:55:04;;;;;;;5.55;1.92;;;19.80;74.40;;;;;;5074437;28;20382;-71
2022/02/22 09:57:30;;;;;;;6.43;1.90;;;;;;;;;;5074415;28;20032;-69
2022/02/22 09:59:56;;;;;;;4.38;2.00;;;;;;;;;;5074388;28;20048;-67
2022/02/22 10:02:22;;;;;;;7.28;2.17;;;;;;;;;;5072755;28;20048;-69
2022/02/22 10:04:49;;;;;;;6.13;1.30;;;19.90;77.50;;;;;;5074435;28;20395;-69
2022/02/22 10:07:15;;;;;;;6.05;1.42;;;;;;;;;;5074349;28;20544;-68
2022/02/22 10:09:55;;;;;;;4.13;1.48;;;20.20;71.80;;;;;;5074124;28;20040;-69
2022/02/22 10:12:31;;;;;;;3.08;1.30;;;19.90;71.70;;;;;;5074319;28;20025;-70
2022/02/22 10:14:58;;;;;;;4.00;1.27;;;20.00;77.80;;;;;;5074035;28;20082;-69
2022/02/22 10:17:24;;;;;;;6.07;1.67;;;;;;;;;;5074006;28;20103;-69
2022/02/22 10:20:03;;;;;;;3.65;1.40;;;20.10;71.90;;;;;;5073967;28;20033;-70
2022/02/22 10:22:32;;;;;;;5.72;1.48;;;20.00;72.00;;;;;;5073844;28;20086;-69
2022/02/22 10:25:06;;;;;;;10.20;2.33;;;20.00;72.10;;;;;;5073772;28;20097;-69
2022/02/22 10:27:43;;;;;;;5.95;1.73;;;20.00;72.30;;;;;;5073246;28;20078;-69
2022/02/22 10:30:39;;;;;;;7.18;1.50;;;20.00;72.30;;;;;;5073751;28;20036;-69
2022/02/22 10:33:16;;;;;;;6.00;1.75;;;20.00;72.40;;;;;;5073709;28;20028;-69
2022/02/22 10:35:47;;;;;;;6.22;1.95;;;19.90;78.60;;;;;;5073526;28;20025;-69
2022/02/22 10:38:21;;;;;;;4.78;1.80;;;19.80;73.00;;;;;;5073519;28;20559;-69
2022/02/22 10:40:56;;;;;;;6.75;1.92;;;19.80;73.10;;;;;;5073784;28;20021;-69
2022/02/22 10:43:27;;;;;;;4.18;1.77;;;19.70;79.30;;;;;;5073454;28;20033;-69
2022/02/22 10:45:59;;;;;;;5.45;1.50;;;19.70;79.40;;;;;;5073264;28;20024;-69
2022/02/22 10:48:25;;;;;;;6.68;1.67;;;;;;;;;;5073225;28;20046;-68
2022/02/22 10:50:52;;;;;;;4.55;1.50;;;19.60;76.80;;;;;;5073265;28;20449;-68
2022/02/22 10:53:18;;;;;;;5.13;1.58;;;;;;;;;;5073269;28;20024;-69
2022/02/22 10:55:46;;;;;;;5.78;1.63;;;19.50;78.10;;;;;;5073233;28;20099;-69
2022/02/22 10:58:12;;;;;;;6.28;1.65;;;19.40;80.60;;;;;;5073433;28;20031;-69
2022/02/22 11:00:38;;;;;;;7.70;2.00;;;;;;;;;;5073097;28;20429;-70
2022/02/22 11:03:04;;;;;;;5.32;1.77;;;;;;;;;;5072889;28;20064;-70
2022/02/22 11:05:31;;;;;;;5.47;2.20;;;19.40;81.20;;;;;;5072971;28;20035;-69
2022/02/22 11:07:57;;;;;;;9.43;1.83;;;;;;;;;;5072827;28;20047;-69
2022/02/22 11:10:29;;;;;;;5.28;1.90;;;19.30;75.40;;;;;;5072921;28;20442;-68
2022/02/22 11:12:59;;;;;;;9.48;1.92;;;19.30;81.70;;;;;;5073116;28;20085;-70
2022/02/22 11:15:38;;;;;;;7.28;2.03;;;19.20;75.60;;;;;;5073166;28;20021;-69
2022/02/22 11:18:16;;;;;;;7.82;2.08;;;19.30;81.60;;;;;;5072930;28;20044;-69
2022/02/22 11:20:42;;;;;;;5.90;2.03;;;19.20;81.60;;;;;;5072846;28;20669;-66
2022/02/22 11:23:10;;;;;;;4.32;1.67;;;;;;;;;;5072842;28;20033;-66
2022/02/22 11:25:37;;;;;;;6.75;1.83;;;19.10;78.20;;;;;;5072915;28;20024;-70
2022/02/22 11:28:09;;;;;;;7.40;2.53;;;19.10;80.60;;;;;;5072305;28;20487;-66
2022/02/22 11:30:35;;;;;;;5.90;2.38;;;19.10;77.30;;;;;;5072463;28;20115;-66
2022/02/22 11:33:13;;;;;;;6.43;2.13;;;19.10;74.50;;;;;;5072391;28;20067;-65
2022/02/22 11:35:54;;;;;;;5.38;1.50;;;19.00;74.30;;;;;;5072595;28;20107;-66
2022/02/22 11:38:20;;;;;;;8.55;1.98;;;;;;;;;;5071496;28;20029;-65
2022/02/22 11:40:50;;;;;;;7.47;2.47;;;19.20;80.60;;;;;;5072528;28;20021;-66
2022/02/22 11:43:18;;;;;;;6.50;2.17;;;18.80;80.40;;;;;;5072261;28;20066;-65
2022/02/22 11:45:49;;;;;;;6.55;1.70;;;18.70;74.20;;;;;;5072048;28;20078;-66
2022/02/22 11:48:18;;;;;;;4.53;2.33;;;18.50;80.40;;;;;;5071996;28;20029;-67
2022/02/22 11:50:46;;;;;;;12.25;2.60;;;18.70;80.20;;;;;;5072327;28;20069;-69
2022/02/22 11:53:14;;;;;;;9.23;2.35;;;18.70;79.40;;;;;;5072584;28;20378;-69
2022/02/22 11:55:40;;;;;;;6.35;2.10;;;;;;;;;;5072253;28;20036;-70
2022/02/22 11:58:12;;;;;;;8.50;2.42;;;18.70;80.80;;;;;;5072364;28;20036;-69
2022/02/22 12:00:38;;;;;;;4.32;1.92;;;;;;;;;;5072260;28;20094;-51
2022/02/22 12:03:12;;;;;;;4.53;1.85;;;18.80;74.80;;;;;;5071758;28;20066;-51
2022/02/22 12:05:41;;;;;;;7.10;2.05;;;18.90;80.80;;;;;;5072123;28;20044;-49
2022/02/22 12:08:08;;;;;;;4.30;1.42;;;18.90;80.70;;;;;;5072264;28;20406;-50
2022/02/22 12:10:44;;;;;;;8.15;1.95;;;18.90;80.60;;;;;;5072158;28;20044;-51
2022/02/22 12:13:12;;;;;;;4.53;1.63;;;19.10;80.60;;;;;;5072416;28;20431;-49
2022/02/22 12:15:42;;;;;;;6.57;2.00;;;;;;;;;;5072157;28;20371;-51
2022/02/22 12:18:11;;;;;;;6.18;1.90;;;19.20;80.30;;;;;;5070974;28;20030;-52
2022/02/22 12:20:37;;;;;;;5.57;1.90;;;;;;;;;;5072106;28;20056;-51
2022/02/22 12:23:03;;;;;;;3.10;1.48;;;;;;;;;;5072039;28;20071;-51
2022/02/22 12:25:29;;;;;;;7.55;1.98;;;;;;;;;;5072083;28;20025;-50
2022/02/22 12:28:03;;;;;;;5.72;1.75;;;19.20;80.10;;;;;;5071966;28;20108;-51
2022/02/22 12:30:34;;;;;;;3.67;1.30;;;19.40;74.00;;;;;;5071961;28;20078;-51
2022/02/22 12:33:00;;;;;;;5.35;1.88;;;;;;;;;;5070670;28;20101;-49
2022/02/22 12:35:31;;;;;;;6.53;1.98;;;19.40;73.70;;;;;;5072031;28;20025;-49
2022/02/22 12:37:57;;;;;;;5.20;1.50;;;;;;;;;;5071970;28;20033;-49
2022/02/22 12:40:23;;;;;;;4.47;1.42;;;;;;;;;;5072133;28;20024;-50
2022/02/22 12:42:49;;;;;;;6.30;1.98;;;;;;;;;;5071885;28;20056;-50
2022/02/22 12:45:15;;;;;;;6.22;2.00;;;;;;;;;;5071817;28;20063;-51
2022/02/22 12:47:41;;;;;;;5.13;1.75;;;;;;;;;;5071843;28;20064;-48
2022/02/22 12:50:07;;;;;;;4.60;1.73;;;;;;;;;;5073697;28;20167;-50
2022/02/22 12:52:33;;;;;;;7.50;1.40;;;;;;;;;;5075454;28;20028;-49
2022/02/22 12:55:09;;;;;;;3.47;1.33;;;19.70;73.60;;;;;;5075383;28;20025;-49
2022/02/22 12:57:35;;;;;;;6.57;1.55;;;;;;;;;;5075649;28;20094;-50
2022/02/22 13:00:04;;;;;;;3.85;1.58;;;19.70;79.60;;;;;;5075246;28;20482;-53
2022/02/22 13:02:30;;;;;;;5.25;1.50;;;;;;;;;;5074812;28;20491;-49
2022/02/22 13:04:56;;;;;;;3.88;1.75;;;;;;;;;;5075333;28;20111;-50
2022/02/22 13:07:22;;;;;;;3.47;1.38;;;;;;;;;;5075246;28;20064;-49
2022/02/22 13:09:49;;;;;;;3.95;1.92;;;;;;;;;;5074161;28;20484;-49
2022/02/22 13:12:20;;;;;;;4.28;1.60;;;19.90;79.60;;;;;;5075266;28;20028;-50
2022/02/22 13:14:49;;;;;;;3.92;1.63;;;19.80;79.70;;;;;;5075544;28;20025;-48
2022/02/22 13:17:16;;;;;;;4.00;1.37;;;19.90;79.90;;;;;;5075151;28;20052;-50
2022/02/22 13:19:44;;;;;;;3.78;1.50;;;19.80;79.70;;;;;;5075063;28;20032;-49
2022/02/22 13:22:30;;;;;;;3.65;1.70;;;19.90;80.00;;;;;;5074833;28;20036;-49
2022/02/22 13:25:04;;;;;;;4.82;1.60;;;19.90;73.70;;;;;;5075023;28;20505;-50
2022/02/22 13:27:31;;;;;;;4.22;1.85;;;19.90;78.70;;;;;;5074788;28;20068;-49
2022/02/22 13:30:21;;;;;;;2.45;1.27;;;19.90;73.90;;;;;;5074899;28;20029;-48
2022/02/22 13:32:49;;;;;;;3.15;1.10;;;;;;;;;;5074931;28;20434;-48
2022/02/22 13:35:19;;;;;;;3.45;1.10;;;19.90;80.00;;;;;;5074819;28;20024;-48
2022/02/22 13:37:45;;;;;;;3.97;1.20;;;;;;;;;;5074798;28;20577;-51
2022/02/22 13:40:15;;;;;;;5.78;1.20;;;19.70;79.80;;;;;;5074785;28;20410;-50
2022/02/22 13:42:41;;;;;;;3.08;1.33;;;19.90;79.80;;;;;;5074697;28;20043;-50
2022/02/22 13:45:09;;;;;;;4.57;1.20;;;19.70;80.30;;;;;;5074610;28;20534;-49
2022/02/22 13:47:37;;;;;;;3.35;0.90;;;19.70;80.40;;;;;;5074515;28;20017;-49
2022/02/22 13:50:21;;;;;;;2.88;1.13;;;19.70;74.60;;;;;;5074600;28;20029;-49
2022/02/22 13:53:00;;;;;;;3.67;1.20;;;19.70;74.80;;;;;;5074358;28;20029;-50
2022/02/22 13:55:26;;;;;;;2.25;1.30;;;;;;;;;;5074233;28;20021;-48
2022/02/22 13:58:03;;;;;;;4.05;1.08;;;19.60;74.60;;;;;;5074289;28;20032;-50
2022/02/22 14:00:29;;;;;;;3.95;1.45;;;;;;;;;;5074088;28;20031;-51
2022/02/22 14:03:03;;;;;;;5.68;1.17;;;19.90;74.90;;;;;;5073572;28;20045;-49
2022/02/22 14:05:29;;;;;;;4.00;1.20;;;;;;;;;;5074493;28;20017;-50
2022/02/22 14:07:55;;;;;;;3.53;1.42;;;;;;;;;;5074158;28;20040;-50